Time;durP1;ratioP1;P1;durP2;ratioP2;P2;SDS_P1;SDS_P2;PMS_P1;PMS_P2;Temp;Humidity;BMP_temperature;BMP_pressure;BME280_temperature;BME280_humidity;BME280_pressure;Samples;Min_cycle;Max_cycle;Signal;HPM_P1;HPM_P2
2024/03/11 00:02:23;;;;;;;50.40;26.67;;;;;;;13.75;58.03;99928.56;4951418;28;20406;-44
2024/03/11 00:04:49;;;;;;;50.25;27.30;;;;;;;13.79;57.86;99938.09;4951937;28;20569;-46
2024/03/11 00:07:15;;;;;;;49.67;27.92;;;;;;;13.69;58.12;99947.00;4951820;28;20134;-48
2024/03/11 00:09:48;;;;;;;47.90;26.83;;;;;;;13.63;58.33;99953.19;4951665;28;20031;-47
2024/03/11 00:12:17;;;;;;;50.45;26.42;;;;;;;13.67;58.23;99956.63;4951865;28;20059;-45
2024/03/11 00:14:47;;;;;;;55.95;27.58;;;;;;;13.70;58.16;99961.84;4951374;28;20043;-46
2024/03/11 00:17:12;;;;;;;51.28;27.35;;;;;;;13.70;58.31;99959.22;4951514;28;20038;-44
2024/03/11 00:19:38;;;;;;;51.97;27.23;;;;;;;13.77;57.81;99950.38;4951505;28;20039;-46
2024/03/11 00:22:03;;;;;;;50.03;26.75;;;;;;;13.74;57.76;99948.66;4950954;28;20035;-45
2024/03/11 00:24:29;;;;;;;48.03;26.08;;;;;;;13.73;58.06;99949.53;4951168;28;20572;-47
2024/03/11 00:26:56;;;;;;;50.50;26.92;;;;;;;13.70;58.03;99948.75;4951051;28;20074;-50
2024/03/11 00:29:21;;;;;;;54.45;27.38;;;;;;;13.63;58.22;99947.94;4951818;28;20047;-49
2024/03/11 00:31:48;;;;;;;48.95;26.50;;;;;;;13.77;57.91;99943.41;4950708;28;20035;-51
2024/03/11 00:34:17;;;;;;;52.17;27.58;;;;;;;13.66;58.27;99945.28;4951511;28;20043;-43
2024/03/11 00:36:44;;;;;;;49.08;26.08;;;;;;;13.77;57.89;99945.16;4953893;28;20462;-46
2024/03/11 00:39:10;;;;;;;51.35;26.95;;;;;;;13.71;58.10;99946.09;4955868;28;20480;-50
2024/03/11 00:41:36;;;;;;;47.50;25.42;;;;;;;13.75;57.85;99942.53;4954547;28;20039;-45
2024/03/11 00:44:01;;;;;;;49.28;26.48;;;;;;;13.82;57.42;99941.56;4955461;28;20031;-46
2024/03/11 00:46:27;;;;;;;50.42;26.55;;;;;;;13.84;57.47;99938.94;4956181;28;20120;-44
2024/03/11 00:48:52;;;;;;;44.45;25.38;;;;;;;13.77;57.73;99937.28;4955191;28;20043;-46
2024/03/11 00:51:18;;;;;;;49.53;26.25;;;;;;;13.68;57.94;99951.38;4954431;28;20034;-45
2024/03/11 00:53:43;;;;;;;49.78;26.02;;;;;;;13.55;58.54;99947.19;4954008;28;20046;-44
2024/03/11 00:56:09;;;;;;;51.50;26.40;;;;;;;13.54;58.51;99955.91;4954583;28;20031;-45
2024/03/11 00:58:35;;;;;;;50.63;26.67;;;;;;;13.46;59.09;99956.91;4954298;28;20050;-48
2024/03/11 01:01:05;;;;;;;54.00;27.88;;;;;;;13.42;59.49;99960.47;4954154;28;20529;-50
2024/03/11 01:03:30;;;;;;;50.55;27.13;;;;;;;13.50;58.86;99963.84;4953837;28;20630;-47
2024/03/11 01:05:58;;;;;;;49.80;26.42;;;;;;;13.54;58.46;99976.88;4954628;28;20122;-46
2024/03/11 01:08:24;;;;;;;51.80;27.85;;;;;;;13.36;59.09;99967.50;4954605;28;20118;-49
2024/03/11 01:10:50;;;;;;;50.20;26.30;;;;;;;13.36;59.16;99971.88;4953972;28;20043;-44
2024/03/11 01:13:16;;;;;;;52.78;28.05;;;;;;;13.08;60.18;99966.06;4952795;29;20046;-44
2024/03/11 01:15:42;;;;;;;55.45;28.52;;;;;;;13.01;60.31;99960.03;4954853;28;20122;-44
2024/03/11 01:18:07;;;;;;;57.47;28.25;;;;;;;12.88;61.06;99968.88;4956048;28;20171;-51
2024/03/11 01:20:34;;;;;;;52.50;27.50;;;;;;;12.68;61.62;99963.00;4953899;28;20066;-45
2024/03/11 01:23:00;;;;;;;55.03;28.63;;;;;;;12.71;61.74;99972.56;4953794;28;20031;-46
2024/03/11 01:25:25;;;;;;;54.08;27.75;;;;;;;12.76;61.87;99963.78;4954248;28;20035;-46
2024/03/11 01:27:52;;;;;;;53.28;28.00;;;;;;;12.72;62.23;99963.84;4953608;28;20034;-47
2024/03/11 01:30:20;;;;;;;54.10;27.80;;;;;;;12.81;61.72;99975.06;4953868;28;20046;-45
2024/03/11 01:32:46;;;;;;;52.97;27.48;;;;;;;12.76;61.50;99971.63;4952045;28;20122;-46
2024/03/11 01:35:13;;;;;;;51.95;27.33;;;;;;;12.70;61.96;99970.81;4953976;28;20035;-44
2024/03/11 01:37:39;;;;;;;55.00;28.27;;;;;;;12.72;62.13;99977.78;4953502;28;20043;-49
2024/03/11 01:40:09;;;;;;;54.78;28.02;;;;;;;12.73;62.35;99974.28;4952700;28;20073;-47
2024/03/11 01:42:34;;;;;;;55.20;28.48;;;;;;;12.47;63.14;99963.19;4951507;28;20035;-49
2024/03/11 01:45:00;;;;;;;55.13;28.00;;;;;;;12.54;63.04;99965.75;4953766;28;20035;-46
2024/03/11 01:47:25;;;;;;;51.95;27.55;;;;;;;12.74;62.42;99967.31;4953168;28;20039;-49
2024/03/11 01:49:54;;;;;;;49.90;26.33;;;;;;;12.70;62.11;99963.84;4953359;28;20039;-47
2024/03/11 01:52:27;;;;;;;53.45;27.48;;;;;;;12.79;62.08;99969.00;4952961;28;20087;-46
2024/03/11 01:54:55;;;;;;;55.38;28.48;;;;;;;12.70;62.61;99965.59;4953479;28;20035;-48
2024/03/11 01:57:22;;;;;;;58.40;28.83;;;;;;;12.70;62.92;99965.59;4955243;28;20019;-43
2024/03/11 01:59:48;;;;;;;56.00;28.02;;;;;;;12.73;62.81;99960.34;4954251;28;20043;-45
2024/03/11 02:02:13;;;;;;;57.38;27.83;;;;;;;12.64;63.28;99952.56;4953529;28;20039;-50
2024/03/11 02:04:45;;;;;;;54.63;27.92;;;;;;;12.74;62.59;99957.72;4953181;28;20090;-45
2024/03/11 02:07:14;;;;;;;55.38;27.50;;;;;;;12.68;63.19;99956.91;4953399;28;20414;-48
2024/03/11 02:09:41;;;;;;;55.20;27.80;;;;;;;12.62;63.14;99956.97;4952808;28;20118;-46
2024/03/11 02:12:14;;;;;;;50.75;27.42;;;;;;;12.80;62.72;99952.44;4952575;28;20118;-49
2024/03/11 02:14:42;;;;;;;56.40;27.90;;;;;;;12.90;61.88;99948.81;4953333;28;20058;-43
2024/03/11 02:17:09;;;;;;;53.83;28.05;;;;;;;12.60;62.94;99949.13;4954627;28;20039;-46
2024/03/11 02:19:34;;;;;;;56.72;29.05;;;;;;;12.64;62.85;99945.59;4952972;28;20066;-48
2024/03/11 02:22:04;;;;;;;53.33;27.63;;;;;;;12.72;62.59;99948.16;4952646;28;20063;-46
2024/03/11 02:24:29;;;;;;;57.35;28.48;;;;;;;12.65;62.98;99951.69;4952773;28;20067;-45
2024/03/11 02:26:55;;;;;;;54.60;28.50;;;;;;;12.65;62.73;99951.69;4953149;28;20075;-45
2024/03/11 02:29:20;;;;;;;58.45;28.95;;;;;;;12.58;63.50;99951.75;4952931;28;20031;-45
2024/03/11 02:31:47;;;;;;;52.42;27.13;;;;;;;12.62;63.28;99954.34;4951877;28;20433;-45
2024/03/11 02:34:14;;;;;;;55.03;27.83;;;;;;;12.55;63.48;99956.16;4952808;28;20509;-45
2024/03/11 02:36:50;;;;;;;58.33;29.25;;;;;;;12.62;63.15;99956.97;4952165;28;20043;-44
2024/03/11 02:39:17;;;;;;;54.13;27.95;;;;;;;12.66;62.82;99956.91;4953115;28;20039;-46
2024/03/11 02:41:43;;;;;;;58.53;28.50;;;;;;;12.59;63.25;99961.34;4952031;28;20035;-45
2024/03/11 02:44:09;;;;;;;57.03;29.88;;;;;;;12.52;63.89;99954.44;4952333;28;20497;-44
2024/03/11 02:46:35;;;;;;;57.58;29.33;;;;;;;12.58;63.71;99956.13;4952349;28;20039;-47
2024/03/11 02:49:00;;;;;;;57.42;28.38;;;;;;;12.63;63.69;99951.72;4952826;28;20122;-45
2024/03/11 02:51:26;;;;;;;61.22;30.65;;;;;;;12.51;63.93;99952.69;4952547;28;20130;-47
2024/03/11 02:53:51;;;;;;;59.33;29.95;;;;;;;12.76;63.02;99963.78;4952516;28;20434;-46
2024/03/11 02:56:17;;;;;;;56.55;28.80;;;;;;;12.72;63.07;99954.25;4953241;28;20042;-46
2024/03/11 02:58:43;;;;;;;54.40;28.95;;;;;;;12.62;63.04;99965.69;4951470;28;20566;-45
2024/03/11 03:01:09;;;;;;;59.20;29.95;;;;;;;12.82;62.81;99957.63;4952035;28;20126;-44
2024/03/11 03:03:35;;;;;;;61.78;29.98;;;;;;;12.82;62.88;99965.47;4951584;28;20039;-45
2024/03/11 03:06:01;;;;;;;56.17;28.65;;;;;;;12.87;62.78;99956.69;4952135;28;20035;-45
2024/03/11 03:08:27;;;;;;;58.83;29.40;;;;;;;12.84;62.81;99968.94;4952117;28;20050;-46
2024/03/11 03:10:52;;;;;;;59.38;29.02;;;;;;;12.93;62.46;99968.84;4952057;28;20083;-47
2024/03/11 03:13:17;;;;;;;59.85;30.30;;;;;;;12.88;62.45;99975.88;4953230;28;20144;-46
2024/03/11 03:15:42;;;;;;;60.58;29.90;;;;;;;12.91;62.66;99981.94;4952079;28;20070;-48
2024/03/11 03:18:08;;;;;;;55.45;29.48;;;;;;;12.88;62.73;99976.75;4952566;28;20031;-46
2024/03/11 03:20:33;;;;;;;62.92;30.63;;;;;;;12.89;62.89;99975.88;4951397;28;20047;-47
2024/03/11 03:22:59;;;;;;;57.05;29.60;;;;;;;12.83;63.13;99983.78;4951537;28;20122;-45
2024/03/11 03:25:30;;;;;;;58.75;30.08;;;;;;;12.85;62.78;99979.41;4952123;28;20650;-46
2024/03/11 03:27:56;;;;;;;58.67;29.50;;;;;;;12.84;62.79;99979.41;4951770;28;20043;-47
2024/03/11 03:30:22;;;;;;;56.78;29.60;;;;;;;12.95;62.59;99985.41;4952013;28;20041;-45
2024/03/11 03:32:47;;;;;;;59.13;29.42;;;;;;;12.92;63.03;99980.22;4951461;28;20035;-46
2024/03/11 03:35:12;;;;;;;57.30;29.70;;;;;;;12.97;62.36;99976.66;4952241;28;20039;-46
2024/03/11 03:37:39;;;;;;;57.38;29.67;;;;;;;12.98;62.43;99967.94;4951712;28;20032;-45
2024/03/11 03:40:15;;;;;;;57.03;29.02;;;;;;;12.99;62.55;99974.88;4952851;28;20039;-43
2024/03/11 03:42:42;;;;;;;54.78;28.33;;;;;;;12.99;62.40;99976.66;4951305;28;20038;-45
2024/03/11 03:45:09;;;;;;;55.58;28.63;;;;;;;12.87;62.70;99976.75;4951941;28;20035;-48
2024/03/11 03:47:35;;;;;;;56.65;28.70;;;;;;;12.94;62.47;99981.03;4951041;28;20082;-46
2024/03/11 03:50:02;;;;;;;53.90;28.50;;;;;;;12.99;62.27;99985.34;4951664;28;20078;-47
2024/03/11 03:52:29;;;;;;;58.75;30.25;;;;;;;13.06;61.98;99980.03;4951168;28;20046;-47
2024/03/11 03:54:54;;;;;;;59.15;30.58;;;;;;;12.95;62.30;99983.66;4951146;28;20515;-46
2024/03/11 03:57:19;;;;;;;52.72;28.88;;;;;;;13.06;61.90;99982.66;4951692;28;20039;-50
2024/03/11 03:59:45;;;;;;;57.53;29.38;;;;;;;12.90;62.34;99979.34;4951424;28;20059;-44
2024/03/11 04:02:10;;;;;;;59.35;29.40;;;;;;;13.01;62.09;99982.72;4950889;28;20557;-46
2024/03/11 04:04:40;;;;;;;59.05;30.27;;;;;;;12.99;62.07;99979.28;4951043;28;20438;-48
2024/03/11 04:07:05;;;;;;;57.58;29.85;;;;;;;12.92;62.45;99981.06;4951356;28;20036;-45
2024/03/11 04:09:30;;;;;;;56.90;30.00;;;;;;;12.96;62.18;99990.63;4951518;28;20133;-46
2024/03/11 04:11:56;;;;;;;56.33;29.35;;;;;;;13.03;61.92;99983.56;4954997;28;20057;-44
2024/03/11 04:14:22;;;;;;;54.53;29.38;;;;;;;12.97;62.40;99981.88;4955559;28;20090;-44
2024/03/11 04:16:47;;;;;;;55.70;28.85;;;;;;;12.89;62.13;99977.59;4955122;28;20039;-45
2024/03/11 04:19:13;;;;;;;56.15;28.95;;;;;;;12.90;62.26;99980.22;4955398;28;20045;-46
2024/03/11 04:21:38;;;;;;;54.30;28.75;;;;;;;12.88;62.46;99984.59;4954384;28;20034;-44
2024/03/11 04:24:05;;;;;;;56.10;28.92;;;;;;;12.87;62.70;99984.59;4954910;28;20038;-47
2024/03/11 04:26:31;;;;;;;54.55;28.50;;;;;;;12.80;62.70;99980.34;4956083;28;20554;-48
2024/03/11 04:28:57;;;;;;;57.28;27.83;;;;;;;12.90;62.34;99982.84;4957014;28;20042;-46
2024/03/11 04:31:24;;;;;;;55.55;28.67;;;;;;;12.75;62.80;99989.94;4957132;28;20051;-45
2024/03/11 04:33:50;;;;;;;59.85;30.23;;;;;;;12.76;62.82;99982.09;4955401;28;20131;-46
2024/03/11 04:36:16;;;;;;;55.42;29.50;;;;;;;12.89;62.20;99983.72;4956094;28;20043;-47
2024/03/11 04:38:41;;;;;;;56.88;29.27;;;;;;;12.91;62.32;99983.69;4955591;28;20089;-47
2024/03/11 04:41:07;;;;;;;55.15;29.23;;;;;;;12.73;63.04;99976.91;4955307;28;20122;-48
2024/03/11 04:43:33;;;;;;;59.17;29.88;;;;;;;12.64;63.25;99987.44;4954544;28;20050;-45
2024/03/11 04:45:58;;;;;;;57.92;29.75;;;;;;;12.70;63.08;99983.91;4954848;28;20031;-44
2024/03/11 04:48:24;;;;;;;57.63;29.50;;;;;;;12.54;63.78;99984.06;4954674;28;20046;-50
2024/03/11 04:50:49;;;;;;;59.92;30.08;;;;;;;12.69;63.03;99977.78;4954391;28;20035;-48
2024/03/11 04:53:16;;;;;;;60.03;30.38;;;;;;;12.53;63.63;99979.69;4954417;28;20039;-47
2024/03/11 04:55:42;;;;;;;59.95;30.80;;;;;;;12.47;64.04;99984.09;4954536;28;20035;-45
2024/03/11 04:58:08;;;;;;;60.05;29.55;;;;;;;12.59;63.53;99984.88;4955627;28;20054;-46
2024/03/11 05:00:34;;;;;;;58.63;29.92;;;;;;;12.59;63.44;99984.88;4955824;28;20035;-46
2024/03/11 05:03:01;;;;;;;62.45;31.15;;;;;;;12.44;64.22;99971.91;4954377;28;20054;-46
2024/03/11 05:05:37;;;;;;;57.17;30.05;;;;;;;12.31;64.84;99982.50;4954495;28;20039;-48
2024/03/11 05:08:03;;;;;;;60.88;31.77;;;;;;;12.23;65.34;99977.34;4954118;28;20043;-46
2024/03/11 05:10:30;;;;;;;67.18;31.98;;;;;;;12.08;66.21;99980.91;4954335;28;20040;-47
2024/03/11 05:12:55;;;;;;;64.20;32.28;;;;;;;12.09;66.30;99984.41;4954502;28;20032;-45
2024/03/11 05:15:22;;;;;;;62.78;31.00;;;;;;;12.24;65.63;99983.44;4956436;28;20059;-46
2024/03/11 05:17:47;;;;;;;62.65;31.95;;;;;;;12.06;66.89;99980.09;4955782;28;20059;-48
2024/03/11 05:20:14;;;;;;;65.43;32.70;;;;;;;12.07;66.99;99987.03;4954539;28;20042;-45
2024/03/11 05:22:43;;;;;;;62.53;31.30;;;;;;;12.24;66.12;99983.44;4952528;28;20052;-47
2024/03/11 05:25:11;;;;;;;63.97;30.55;;;;;;;12.34;65.84;99990.31;4954234;28;20035;-47
2024/03/11 05:27:37;;;;;;;60.72;30.98;;;;;;;12.26;65.94;99998.22;4953638;28;20040;-47
2024/03/11 05:30:04;;;;;;;61.65;32.65;;;;;;;12.20;66.00;99988.66;4954438;28;20094;-48
2024/03/11 05:32:30;;;;;;;63.83;31.65;;;;;;;12.18;66.52;100003.50;4953470;28;20031;-46
2024/03/11 05:34:55;;;;;;;66.40;33.05;;;;;;;12.24;66.51;100006.94;4954854;28;20039;-44
2024/03/11 05:37:22;;;;;;;63.97;32.28;;;;;;;12.24;66.44;100007.81;4955786;28;20039;-45
2024/03/11 05:39:48;;;;;;;69.75;33.05;;;;;;;12.09;66.88;100006.16;4953564;28;20035;-46
2024/03/11 05:42:14;;;;;;;62.85;31.92;;;;;;;12.08;67.26;100017.50;4953560;28;20046;-46
2024/03/11 05:44:40;;;;;;;62.22;32.10;;;;;;;12.17;66.89;100022.69;4953676;28;20150;-47
2024/03/11 05:47:06;;;;;;;66.03;32.92;;;;;;;12.11;67.09;100029.69;4954124;28;20542;-44
2024/03/11 05:49:33;;;;;;;65.50;32.50;;;;;;;12.09;67.10;100027.06;4953836;28;20097;-45
2024/03/11 05:51:58;;;;;;;68.68;32.83;;;;;;;12.16;67.08;100036.59;4953548;28;20047;-45
2024/03/11 05:54:24;;;;;;;66.60;33.20;;;;;;;12.15;67.19;100031.38;4953577;28;20496;-45
2024/03/11 05:56:59;;;;;;;65.75;32.80;;;;;;;12.26;67.00;100037.41;4952925;28;20402;-46
2024/03/11 05:59:25;;;;;;;67.40;32.78;;;;;;;12.24;66.98;100038.31;4953516;28;20134;-47
2024/03/11 06:01:52;;;;;;;67.25;32.08;;;;;;;12.22;67.24;100042.66;4952377;28;20039;-45
2024/03/11 06:04:18;;;;;;;67.50;34.35;;;;;;;12.36;66.63;100043.47;4953326;28;20043;-44
2024/03/11 06:06:47;;;;;;;66.15;33.70;;;;;;;12.25;67.30;100047.91;4953048;28;20118;-50
2024/03/11 06:09:14;;;;;;;67.88;33.33;;;;;;;12.29;67.36;100052.22;4953860;28;20070;-46
2024/03/11 06:11:44;;;;;;;66.97;34.67;;;;;;;12.27;67.63;100047.00;4953234;28;20086;-46
2024/03/11 06:14:12;;;;;;;71.28;34.70;;;;;;;12.16;67.90;100060.13;4953037;28;20035;-45
2024/03/11 06:16:41;;;;;;;69.25;34.42;;;;;;;12.33;67.68;100056.53;4952865;28;20039;-45
2024/03/11 06:19:08;;;;;;;72.82;34.95;;;;;;;12.34;67.63;100060.88;4953160;28;20042;-44
2024/03/11 06:21:34;;;;;;;70.03;34.58;;;;;;;12.27;67.58;100067.91;4950978;28;20039;-44
2024/03/11 06:24:00;;;;;;;67.35;34.67;;;;;;;12.43;67.26;100080.00;4953140;28;20124;-45
2024/03/11 06:26:29;;;;;;;69.07;34.30;;;;;;;12.45;67.11;100078.22;4951656;28;20071;-47
2024/03/11 06:29:00;;;;;;;67.25;33.60;;;;;;;12.60;66.28;100077.25;4952857;28;20043;-47
2024/03/11 06:31:25;;;;;;;72.13;34.47;;;;;;;12.57;66.31;100075.53;4953456;28;20046;-46
2024/03/11 06:33:52;;;;;;;63.75;33.10;;;;;;;12.43;66.80;100084.38;4952424;28;20031;-44
2024/03/11 06:36:17;;;;;;;72.65;34.15;;;;;;;12.28;67.14;100087.06;4953355;28;20402;-44
2024/03/11 06:38:44;;;;;;;71.60;35.10;;;;;;;12.30;66.74;100088.78;4952893;28;20027;-46
2024/03/11 06:41:10;;;;;;;68.43;33.92;;;;;;;12.27;67.62;100093.16;4952937;28;20089;-44
2024/03/11 06:43:35;;;;;;;68.20;34.40;;;;;;;12.35;67.31;100091.38;4952193;28;20039;-46
2024/03/11 06:46:01;;;;;;;66.72;32.88;;;;;;;12.45;67.22;100090.44;4952442;28;20035;-46
2024/03/11 06:48:26;;;;;;;66.70;34.10;;;;;;;12.53;66.82;100084.28;4952617;28;20410;-48
2024/03/11 06:50:51;;;;;;;67.53;34.22;;;;;;;12.66;66.77;100092.03;4951989;28;20085;-48
2024/03/11 06:53:17;;;;;;;66.07;33.28;;;;;;;12.69;66.25;100092.88;4952016;28;20054;-45
2024/03/11 06:55:43;;;;;;;65.00;33.00;;;;;;;12.73;66.17;100094.59;4952141;28;20038;-46
2024/03/11 06:58:09;;;;;;;66.63;33.40;;;;;;;12.64;66.52;100096.41;4952763;28;20123;-47
2024/03/11 07:00:34;;;;;;;69.18;34.08;;;;;;;12.25;67.94;100101.03;4952030;28;20043;-46
2024/03/11 07:02:59;;;;;;;65.55;33.38;;;;;;;12.42;67.36;100104.41;4951978;28;20035;-46
2024/03/11 07:05:28;;;;;;;67.40;34.13;;;;;;;12.42;67.69;100111.38;4952483;28;20039;-45
2024/03/11 07:07:56;;;;;;;70.45;33.92;;;;;;;12.38;67.94;100113.13;4953996;28;20450;-45
2024/03/11 07:10:22;;;;;;;65.60;33.83;;;;;;;12.37;67.84;100111.41;4952992;28;20063;-45
2024/03/11 07:12:47;;;;;;;66.95;33.78;;;;;;;12.46;67.72;100110.47;4953585;28;20039;-45
2024/03/11 07:15:13;;;;;;;66.35;34.25;;;;;;;12.54;67.89;100108.69;4953986;28;20032;-45
2024/03/11 07:17:39;;;;;;;64.90;33.30;;;;;;;12.38;68.24;100117.50;4952649;28;20130;-45
2024/03/11 07:20:07;;;;;;;65.75;33.78;;;;;;;12.60;67.89;100114.75;4952067;28;20502;-47
2024/03/11 07:22:38;;;;;;;69.53;34.85;;;;;;;12.52;68.28;100120.88;4951508;28;20047;-45
2024/03/11 07:25:06;;;;;;;68.85;34.58;;;;;;;12.49;68.11;100120.91;4952586;28;20443;-45
2024/03/11 07:27:31;;;;;;;69.70;33.92;;;;;;;12.69;67.95;100120.75;4952177;28;20079;-46
2024/03/11 07:29:57;;;;;;;69.07;34.13;;;;;;;12.68;68.17;100125.16;4952416;28;20070;-44
2024/03/11 07:32:23;;;;;;;66.75;34.17;;;;;;;12.71;68.18;100129.47;4951458;28;20483;-45
2024/03/11 07:34:50;;;;;;;70.30;35.67;;;;;;;12.67;68.16;100135.63;4951773;28;20032;-45
2024/03/11 07:37:16;;;;;;;70.63;33.60;;;;;;;12.66;67.83;100137.38;4953006;28;20043;-45
2024/03/11 07:39:41;;;;;;;66.90;34.78;;;;;;;12.77;67.39;100143.38;4952838;28;20039;-45
2024/03/11 07:42:07;;;;;;;69.05;34.15;;;;;;;12.74;67.61;100134.69;4953369;28;20035;-46
2024/03/11 07:44:33;;;;;;;68.60;33.50;;;;;;;12.99;66.57;100139.72;4953145;28;20062;-45
2024/03/11 07:46:58;;;;;;;68.68;34.30;;;;;;;12.90;66.56;100133.69;4953956;28;20130;-46
2024/03/11 07:49:23;;;;;;;70.57;33.92;;;;;;;12.73;67.39;100143.41;4953447;28;20110;-44
2024/03/11 07:51:49;;;;;;;66.32;34.30;;;;;;;12.77;67.18;100142.50;4952799;28;20035;-42
2024/03/11 07:54:14;;;;;;;69.93;34.17;;;;;;;13.06;66.38;100151.00;4954175;28;20516;-44
2024/03/11 07:56:39;;;;;;;67.97;33.70;;;;;;;12.99;66.36;100150.19;4953901;28;20053;-46
2024/03/11 07:59:05;;;;;;;66.57;33.70;;;;;;;13.19;66.05;100155.28;4954133;28;20035;-44
2024/03/11 08:01:31;;;;;;;63.60;32.83;;;;;;;12.86;66.37;100156.41;4952440;28;20134;-47
2024/03/11 08:03:57;;;;;;;68.95;34.53;;;;;;;12.98;66.35;100164.16;4953075;28;20104;-44
2024/03/11 08:06:22;;;;;;;67.55;34.10;;;;;;;13.14;66.28;100156.22;4953642;28;20707;-46
2024/03/11 08:08:52;;;;;;;71.10;34.42;;;;;;;13.10;66.33;100162.31;4953213;28;20059;-49
2024/03/11 08:11:20;;;;;;;65.90;33.42;;;;;;;13.19;66.55;100159.66;4952707;28;20039;-46
2024/03/11 08:13:45;;;;;;;69.70;34.17;;;;;;;13.23;66.16;100164.00;4952084;28;20565;-44
2024/03/11 08:16:11;;;;;;;67.25;33.65;;;;;;;13.28;65.94;100165.69;4952870;28;20031;-48
2024/03/11 08:18:39;;;;;;;65.93;32.92;;;;;;;13.38;66.03;100162.09;4952846;28;20039;-45
2024/03/11 08:21:05;;;;;;;64.30;32.95;;;;;;;13.45;65.97;100167.28;4952790;28;20036;-45
2024/03/11 08:23:30;;;;;;;66.55;34.63;;;;;;;13.49;65.59;100168.97;4952062;28;20047;-45
2024/03/11 08:25:56;;;;;;;62.55;32.90;;;;;;;13.25;66.53;100177.91;4952904;28;20677;-45
2024/03/11 08:28:22;;;;;;;65.03;33.47;;;;;;;13.50;65.35;100175.94;4953817;28;20119;-47
2024/03/11 08:30:47;;;;;;;65.60;33.20;;;;;;;13.35;65.85;100180.47;4953127;28;20035;-46
2024/03/11 08:33:15;;;;;;;65.60;33.40;;;;;;;13.46;65.65;100180.34;4952604;28;20043;-47
2024/03/11 08:35:41;;;;;;;66.78;34.78;;;;;;;13.27;66.30;100190.13;4951375;28;20040;-46
2024/03/11 08:38:07;;;;;;;68.20;34.22;;;;;;;13.34;66.06;100191.81;4952230;28;20035;-45
2024/03/11 08:40:32;;;;;;;66.75;33.78;;;;;;;13.28;66.61;100198.84;4951797;28;20032;-44
2024/03/11 08:42:58;;;;;;;62.75;32.63;;;;;;;13.18;66.63;100195.41;4951598;28;20035;-45
2024/03/11 08:45:23;;;;;;;64.05;33.78;;;;;;;13.35;66.19;100197.91;4951714;28;20031;-44
2024/03/11 08:47:49;;;;;;;65.53;33.70;;;;;;;13.39;66.56;100197.00;4951814;28;20038;-45
2024/03/11 08:50:21;;;;;;;65.80;33.83;;;;;;;13.35;66.60;100205.78;4952141;28;20031;-45
2024/03/11 08:52:47;;;;;;;66.78;34.22;;;;;;;13.30;66.61;100203.16;4951069;28;20122;-45
2024/03/11 08:55:13;;;;;;;66.28;33.55;;;;;;;13.18;67.36;100205.88;4951837;28;20580;-45
2024/03/11 08:57:40;;;;;;;67.30;34.92;;;;;;;13.17;67.77;100206.78;4953767;28;20525;-46
2024/03/11 09:00:09;;;;;;;63.35;33.47;;;;;;;13.40;67.31;100206.59;4956470;28;20039;-46
2024/03/11 09:02:35;;;;;;;66.57;34.05;;;;;;;13.29;67.31;100205.81;4955998;28;20039;-45
2024/03/11 09:05:01;;;;;;;64.72;33.72;;;;;;;13.49;67.02;100210.88;4956098;28;20073;-45
2024/03/11 09:07:28;;;;;;;66.22;34.63;;;;;;;13.30;67.43;100208.41;4954957;28;20494;-46
2024/03/11 09:09:56;;;;;;;66.20;34.50;;;;;;;13.45;66.93;100209.16;4956856;28;20042;-43
2024/03/11 09:12:22;;;;;;;69.85;34.83;;;;;;;13.50;67.10;100218.72;4956604;28;20502;-46
2024/03/11 09:14:47;;;;;;;72.57;33.97;;;;;;;13.38;67.83;100221.44;4954365;28;20047;-44
2024/03/11 09:17:12;;;;;;;69.72;34.53;;;;;;;13.29;68.41;100216.28;4954752;28;20031;-46
2024/03/11 09:19:41;;;;;;;70.88;35.58;;;;;;;12.92;69.54;100220.91;4953929;28;20618;-46
2024/03/11 09:22:07;;;;;;;73.18;35.92;;;;;;;13.24;68.82;100224.16;4953853;28;20126;-47
2024/03/11 09:24:33;;;;;;;71.53;35.03;;;;;;;13.26;68.12;100232.00;4954132;28;20637;-45
2024/03/11 09:27:02;;;;;;;71.03;34.78;;;;;;;13.36;68.01;100231.03;4954541;28;20035;-46
2024/03/11 09:29:28;;;;;;;70.13;35.50;;;;;;;13.26;67.84;100232.00;4954432;28;20049;-45
2024/03/11 09:31:53;;;;;;;69.93;35.58;;;;;;;13.11;69.19;100230.38;4952892;28;20035;-45
2024/03/11 09:34:18;;;;;;;71.15;36.05;;;;;;;12.85;70.42;100227.91;4954638;28;20027;-44
2024/03/11 09:36:44;;;;;;;75.43;36.58;;;;;;;12.98;70.36;100226.09;4954288;28;20072;-46
2024/03/11 09:39:13;;;;;;;74.90;36.20;;;;;;;13.12;69.89;100231.19;4954505;28;20031;-46
2024/03/11 09:41:48;;;;;;;77.07;36.42;;;;;;;13.25;69.33;100235.50;4953499;28;20039;-46
2024/03/11 09:44:18;;;;;;;74.78;36.75;;;;;;;13.48;68.92;100240.56;4955532;28;20035;-46
2024/03/11 09:46:55;;;;;;;72.60;35.63;;;;;;;13.25;69.08;100244.22;4953896;28;20039;-46
2024/03/11 09:49:23;;;;;;;76.68;36.80;;;;;;;13.37;68.96;100254.59;4954293;28;20035;-47
2024/03/11 09:51:50;;;;;;;72.88;36.13;;;;;;;13.27;69.08;100260.81;4952886;28;20126;-45
2024/03/11 09:54:19;;;;;;;75.82;37.45;;;;;;;13.38;69.04;100260.72;4954093;28;20062;-47
2024/03/11 09:56:47;;;;;;;74.70;35.95;;;;;;;13.57;68.41;100261.44;4953730;28;20097;-45
2024/03/11 09:59:18;;;;;;;71.53;36.42;;;;;;;12.85;70.69;100263.66;4954399;28;20059;-45
2024/03/11 10:01:54;;;;;;;72.97;35.92;;;;;;;13.12;70.50;100262.59;4952798;28;20039;-45
2024/03/11 10:04:23;;;;;;;73.28;36.67;;;;;;;13.41;70.29;100265.94;4954068;28;20478;-46
2024/03/11 10:07:05;;;;;;;77.57;36.53;;;;;;;13.25;70.28;100275.63;4953050;28;20047;-46
2024/03/11 10:09:31;;;;;;;71.90;35.67;;;;;;;13.35;70.63;100271.22;4953615;28;20450;-47
2024/03/11 10:12:10;;;;;;;70.55;35.78;;;;;;;13.63;69.61;100272.72;4953026;28;20494;-47
2024/03/11 10:14:38;;;;;;;71.68;35.63;;;;;;;13.34;70.38;100275.59;4953047;28;20043;-45
2024/03/11 10:17:23;;;;;;;73.60;36.97;;;;;;;13.44;70.08;100280.75;4953796;28;20031;-44
2024/03/11 10:19:53;;;;;;;74.63;36.53;;;;;;;13.20;70.63;100280.03;4953100;28;20070;-47
2024/03/11 10:22:33;;;;;;;70.80;36.13;;;;;;;13.27;70.41;100293.97;4952932;28;20035;-44
2024/03/11 10:25:02;;;;;;;68.45;35.75;;;;;;;13.28;70.49;100293.09;4953208;28;20035;-44
2024/03/11 10:27:33;;;;;;;73.28;36.05;;;;;;;13.38;69.94;100297.38;4953377;28;20035;-45
2024/03/11 10:30:19;;;;;;;76.45;37.20;;;;;;;13.52;69.66;100299.88;4953292;28;20035;-45
2024/03/11 10:32:49;;;;;;;71.80;37.15;;;;;;;13.40;70.23;100301.72;4952458;28;20469;-45
2024/03/11 10:35:20;;;;;;;72.68;36.15;;;;;;;13.50;69.92;100310.38;4953222;28;20031;-45
2024/03/11 10:37:46;;;;;;;71.43;35.88;;;;;;;13.30;70.80;100301.78;4952891;28;20380;-46
2024/03/11 10:40:18;;;;;;;73.03;36.67;;;;;;;13.00;71.75;100311.53;4953076;28;20047;-45
2024/03/11 10:42:53;;;;;;;75.90;36.22;;;;;;;13.19;71.41;100312.31;4953078;28;20066;-44
2024/03/11 10:45:35;;;;;;;71.25;35.45;;;;;;;13.10;71.49;100316.72;4955054;28;20620;-45
2024/03/11 10:48:00;;;;;;;74.47;36.45;;;;;;;13.32;70.63;100307.88;4953118;28;20074;-46
2024/03/11 10:50:35;;;;;;;73.13;37.75;;;;;;;13.31;71.09;100314.00;4953285;28;20063;-45
2024/03/11 10:53:06;;;;;;;76.63;36.50;;;;;;;13.38;70.59;100310.47;4952417;28;20028;-44
2024/03/11 10:55:32;;;;;;;76.38;37.25;;;;;;;13.38;70.64;100316.56;4952764;28;20039;-43
2024/03/11 10:58:04;;;;;;;78.13;38.50;;;;;;;13.27;71.40;100307.91;4953049;28;20031;-46
2024/03/11 11:00:34;;;;;;;79.80;37.92;;;;;;;13.10;72.53;100314.09;4952996;28;20031;-46
2024/03/11 11:03:08;;;;;;;86.10;38.95;;;;;;;13.33;72.57;100312.25;4952072;28;20386;-45
2024/03/11 11:05:39;;;;;;;83.25;39.03;;;;;;;13.24;72.78;100307.94;4952346;28;20042;-46
2024/03/11 11:08:07;;;;;;;77.30;38.28;;;;;;;13.55;71.69;100308.56;4952739;28;20039;-45
2024/03/11 11:10:35;;;;;;;80.78;38.08;;;;;;;13.24;71.85;100318.41;4951925;28;20053;-45
2024/03/11 11:13:05;;;;;;;79.28;38.28;;;;;;;13.23;72.38;100308.84;4951884;28;20037;-44
2024/03/11 11:15:35;;;;;;;78.00;37.30;;;;;;;13.47;71.91;100312.16;4952204;28;20031;-45